sensor_id;sensor_type;location;lat;lon;timestamp;pressure;altitude;pressure_sealevel;temperature;humidity
64189;BME280;50493;50.970;10.082;2024-02-28T00:00:10;99513.28;;;7.53;72.14
64189;BME280;50493;50.970;10.082;2024-02-28T00:02:36;99518.44;;;7.58;67.56
64189;BME280;50493;50.970;10.082;2024-02-28T00:05:01;99505.38;;;7.67;69.05
64189;BME280;50493;50.970;10.082;2024-02-28T00:07:26;99504.53;;;7.65;66.94
64189;BME280;50493;50.970;10.082;2024-02-28T00:09:52;99508.03;;;7.58;67.13
64189;BME280;50493;50.970;10.082;2024-02-28T00:12:18;99503.03;;;7.24;55.88
64189;BME280;50493;50.970;10.082;2024-02-28T00:14:44;99502.28;;;7.03;69.03
64189;BME280;50493;50.970;10.082;2024-02-28T00:17:09;99509.16;;;7.10;70.50
64189;BME280;50493;50.970;10.082;2024-02-28T00:19:34;99503.09;;;7.18;70.11
64189;BME280;50493;50.970;10.082;2024-02-28T00:22:00;99498.75;;;7.18;55.34
64189;BME280;50493;50.970;10.082;2024-02-28T00:24:26;99510.25;;;6.68;66.41
64189;BME280;50493;50.970;10.082;2024-02-28T00:26:51;99502.38;;;6.85;74.27
64189;BME280;50493;50.970;10.082;2024-02-28T00:29:18;99504.78;;;7.19;60.28
64189;BME280;50493;50.970;10.082;2024-02-28T00:31:43;99502.28;;;7.05;62.97
64189;BME280;50493;50.970;10.082;2024-02-28T00:34:09;99495.41;;;6.98;70.37
64189;BME280;50493;50.970;10.082;2024-02-28T00:36:34;99503.97;;;7.15;57.29
64189;BME280;50493;50.970;10.082;2024-02-28T00:38:59;99504.88;;;7.03;57.64
64189;BME280;50493;50.970;10.082;2024-02-28T00:41:25;99510.19;;;6.88;72.55
64189;BME280;50493;50.970;10.082;2024-02-28T00:43:50;99513.63;;;6.82;74.75
64189;BME280;50493;50.970;10.082;2024-02-28T00:46:17;99518.84;;;6.87;75.11
64189;BME280;50493;50.970;10.082;2024-02-28T00:48:42;99512.78;;;6.83;75.17
64189;BME280;50493;50.970;10.082;2024-02-28T00:51:07;99507.53;;;6.92;75.26
64189;BME280;50493;50.970;10.082;2024-02-28T00:53:33;99515.22;;;7.16;72.25
64189;BME280;50493;50.970;10.082;2024-02-28T00:55:59;99513.56;;;7.02;73.75
64189;BME280;50493;50.970;10.082;2024-02-28T00:58:24;99513.50;;;7.18;64.61
64189;BME280;50493;50.970;10.082;2024-02-28T01:00:51;99504.91;;;6.97;70.22
64189;BME280;50493;50.970;10.082;2024-02-28T01:03:18;99502.22;;;7.20;55.79
64189;BME280;50493;50.970;10.082;2024-02-28T01:05:44;99512.66;;;7.13;59.96
64189;BME280;50493;50.970;10.082;2024-02-28T01:08:09;99517.06;;;6.95;72.27
64189;BME280;50493;50.970;10.082;2024-02-28T01:10:34;99517.09;;;6.92;72.94
64189;BME280;50493;50.970;10.082;2024-02-28T01:13:00;99530.06;;;6.93;70.88
64189;BME280;50493;50.970;10.082;2024-02-28T01:15:25;99526.66;;;6.84;58.50
64189;BME280;50493;50.970;10.082;2024-02-28T01:17:51;99531.06;;;6.54;69.10
64189;BME280;50493;50.970;10.082;2024-02-28T01:20:17;99525.84;;;6.63;73.96
64189;BME280;50493;50.970;10.082;2024-02-28T01:22:43;99528.44;;;6.65;74.82
64189;BME280;50493;50.970;10.082;2024-02-28T01:25:09;99530.97;;;6.88;68.98
64189;BME280;50493;50.970;10.082;2024-02-28T01:27:34;99534.41;;;6.90;70.31
64189;BME280;50493;50.970;10.082;2024-02-28T01:30:00;99537.03;;;6.79;73.22
64189;BME280;50493;50.970;10.082;2024-02-28T01:32:25;99531.00;;;6.75;71.58
64189;BME280;50493;50.970;10.082;2024-02-28T01:34:50;99532.81;;;6.59;71.08
64189;BME280;50493;50.970;10.082;2024-02-28T01:37:17;99541.44;;;6.63;74.25
64189;BME280;50493;50.970;10.082;2024-02-28T01:39:42;99545.72;;;6.73;74.00
64189;BME280;50493;50.970;10.082;2024-02-28T01:42:08;99547.44;;;6.84;73.63
64189;BME280;50493;50.970;10.082;2024-02-28T01:44:40;99546.50;;;7.00;68.47
64189;BME280;50493;50.970;10.082;2024-02-28T01:47:06;99546.53;;;6.91;61.20
64189;BME280;50493;50.970;10.082;2024-02-28T01:49:32;99541.34;;;6.91;68.91
64189;BME280;50493;50.970;10.082;2024-02-28T01:51:57;99533.63;;;6.71;73.29
64189;BME280;50493;50.970;10.082;2024-02-28T01:54:25;99536.19;;;6.75;73.83
64189;BME280;50493;50.970;10.082;2024-02-28T01:56:52;99534.47;;;6.76;73.41
64189;BME280;50493;50.970;10.082;2024-02-28T01:59:17;99524.81;;;7.04;54.97
64189;BME280;50493;50.970;10.082;2024-02-28T02:01:43;99521.41;;;6.94;65.21
64189;BME280;50493;50.970;10.082;2024-02-28T02:04:08;99529.34;;;6.62;73.14
64189;BME280;50493;50.970;10.082;2024-02-28T02:06:35;99533.59;;;6.78;71.69
64189;BME280;50493;50.970;10.082;2024-02-28T02:09:02;99532.78;;;6.63;73.99
64189;BME280;50493;50.970;10.082;2024-02-28T02:11:29;99536.19;;;6.82;72.84
64189;BME280;50493;50.970;10.082;2024-02-28T02:13:55;99539.63;;;6.81;73.04
64189;BME280;50493;50.970;10.082;2024-02-28T02:16:20;99534.47;;;6.74;73.02
64189;BME280;50493;50.970;10.082;2024-02-28T02:18:48;99541.44;;;6.63;73.52
64189;BME280;50493;50.970;10.082;2024-02-28T02:21:15;99534.56;;;6.53;74.22
64189;BME280;50493;50.970;10.082;2024-02-28T02:23:44;99539.72;;;6.59;73.76
64189;BME280;50493;50.970;10.082;2024-02-28T02:26:09;99533.63;;;6.65;73.68
64189;BME280;50493;50.970;10.082;2024-02-28T02:28:35;99537.16;;;6.43;74.35
64189;BME280;50493;50.970;10.082;2024-02-28T02:31:00;99543.22;;;6.39;74.65
64189;BME280;50493;50.970;10.082;2024-02-28T02:33:25;99551.00;;;6.52;73.75
64189;BME280;50493;50.970;10.082;2024-02-28T02:35:51;99539.72;;;6.64;73.27
64189;BME280;50493;50.970;10.082;2024-02-28T02:38:16;99531.06;;;6.57;73.15
64189;BME280;50493;50.970;10.082;2024-02-28T02:40:43;99531.06;;;6.54;73.51
64189;BME280;50493;50.970;10.082;2024-02-28T02:43:08;99538.00;;;6.58;72.98
64189;BME280;50493;50.970;10.082;2024-02-28T02:45:34;99542.41;;;6.23;74.44
64189;BME280;50493;50.970;10.082;2024-02-28T02:48:00;99537.22;;;6.08;75.78
64189;BME280;50493;50.970;10.082;2024-02-28T02:50:25;99538.06;;;6.18;75.14
64189;BME280;50493;50.970;10.082;2024-02-28T02:52:51;99544.09;;;6.35;74.27
64189;BME280;50493;50.970;10.082;2024-02-28T02:55:16;99551.91;;;6.17;75.07
64189;BME280;50493;50.970;10.082;2024-02-28T02:57:43;99548.47;;;6.15;74.76
64189;BME280;50493;50.970;10.082;2024-02-28T03:00:09;99547.56;;;6.25;74.29
64189;BME280;50493;50.970;10.082;2024-02-28T03:02:35;99545.84;;;6.24;74.35
64189;BME280;50493;50.970;10.082;2024-02-28T03:05:03;99549.31;;;6.15;74.61
64189;BME280;50493;50.970;10.082;2024-02-28T03:07:29;99548.41;;;6.42;73.36
64189;BME280;50493;50.970;10.082;2024-02-28T03:09:54;99539.72;;;6.59;71.67
64189;BME280;50493;50.970;10.082;2024-02-28T03:12:20;99551.00;;;6.35;73.46
64189;BME280;50493;50.970;10.082;2024-02-28T03:14:48;99551.06;;;6.10;74.40
64189;BME280;50493;50.970;10.082;2024-02-28T03:17:13;99552.78;;;5.58;76.63
64189;BME280;50493;50.970;10.082;2024-02-28T03:19:40;99557.03;;;5.42;77.93
64189;BME280;50493;50.970;10.082;2024-02-28T03:22:05;99562.22;;;5.36;78.15
64189;BME280;50493;50.970;10.082;2024-02-28T03:24:31;99563.91;;;5.25;78.65
64189;BME280;50493;50.970;10.082;2024-02-28T03:26:56;99558.72;;;5.19;78.73
64189;BME280;50493;50.970;10.082;2024-02-28T03:29:22;99562.19;;;5.30;78.21
64189;BME280;50493;50.970;10.082;2024-02-28T03:31:48;99549.22;;;5.32;78.19
64189;BME280;50493;50.970;10.082;2024-02-28T03:34:14;99559.56;;;5.19;78.74
64189;BME280;50493;50.970;10.082;2024-02-28T03:36:39;99570.78;;;5.11;79.14
64189;BME280;50493;50.970;10.082;2024-02-28T03:39:04;99569.94;;;5.15;78.46
64189;BME280;50493;50.970;10.082;2024-02-28T03:41:31;99580.22;;;5.01;79.75
64189;BME280;50493;50.970;10.082;2024-02-28T03:43:56;99576.75;;;4.92;79.72
64189;BME280;50493;50.970;10.082;2024-02-28T03:46:21;99569.84;;;4.91;79.87
64189;BME280;50493;50.970;10.082;2024-02-28T03:48:48;99580.31;;;5.16;78.24
64189;BME280;50493;50.970;10.082;2024-02-28T03:51:13;99582.06;;;5.28;77.89
64189;BME280;50493;50.970;10.082;2024-02-28T03:53:40;99579.53;;;5.47;76.88
64189;BME280;50493;50.970;10.082;2024-02-28T03:56:05;99578.66;;;5.43;76.66
64189;BME280;50493;50.970;10.082;2024-02-28T03:58:31;99583.91;;;5.54;76.53
64189;BME280;50493;50.970;10.082;2024-02-28T04:00:56;99585.63;;;5.49;76.51
64189;BME280;50493;50.970;10.082;2024-02-28T04:03:21;99592.53;;;5.50;75.89
64189;BME280;50493;50.970;10.082;2024-02-28T04:05:48;99598.59;;;5.58;75.39
64189;BME280;50493;50.970;10.082;2024-02-28T04:08:13;99595.13;;;5.56;75.59
64189;BME280;50493;50.970;10.082;2024-02-28T04:10:39;99603.78;;;5.59;75.40
64189;BME280;50493;50.970;10.082;2024-02-28T04:13:04;99603.78;;;5.61;75.29
64189;BME280;50493;50.970;10.082;2024-02-28T04:15:30;99596.88;;;5.68;74.76
64189;BME280;50493;50.970;10.082;2024-02-28T04:17:55;99596.88;;;5.82;74.04
64189;BME280;50493;50.970;10.082;2024-02-28T04:20:21;99603.81;;;5.70;74.54
64189;BME280;50493;50.970;10.082;2024-02-28T04:22:47;99607.22;;;5.63;74.62
64189;BME280;50493;50.970;10.082;2024-02-28T04:25:13;99609.81;;;5.57;74.79
64189;BME280;50493;50.970;10.082;2024-02-28T04:27:38;99615.69;;;5.09;77.18
64189;BME280;50493;50.970;10.082;2024-02-28T04:30:04;99613.88;;;4.93;78.27
64189;BME280;50493;50.970;10.082;2024-02-28T04:32:30;99617.22;;;4.70;79.03
64189;BME280;50493;50.970;10.082;2024-02-28T04:34:55;99620.66;;;4.69;79.58
64189;BME280;50493;50.970;10.082;2024-02-28T04:37:21;99623.41;;;4.96;78.21
64189;BME280;50493;50.970;10.082;2024-02-28T04:39:48;99613.91;;;5.02;77.84
64189;BME280;50493;50.970;10.082;2024-02-28T04:42:15;99619.06;;;4.93;78.15
64189;BME280;50493;50.970;10.082;2024-02-28T04:44:41;99624.09;;;4.67;79.12
64189;BME280;50493;50.970;10.082;2024-02-28T04:47:07;99627.47;;;4.55;79.44
64189;BME280;50493;50.970;10.082;2024-02-28T04:49:32;99627.63;;;4.83;78.31
64189;BME280;50493;50.970;10.082;2024-02-28T04:51:57;99632.88;;;4.98;77.20
64189;BME280;50493;50.970;10.082;2024-02-28T04:54:24;99635.47;;;4.92;77.49
64189;BME280;50493;50.970;10.082;2024-02-28T04:56:50;99645.66;;;4.66;78.71
64189;BME280;50493;50.970;10.082;2024-02-28T04:59:16;99644.03;;;4.80;78.13
64189;BME280;50493;50.970;10.082;2024-02-28T05:01:42;99647.53;;;4.90;77.58
64189;BME280;50493;50.970;10.082;2024-02-28T05:04:09;99644.09;;;4.94;77.28
64189;BME280;50493;50.970;10.082;2024-02-28T05:06:35;99651.66;;;4.60;78.24
64189;BME280;50493;50.970;10.082;2024-02-28T05:09:01;99651.66;;;4.57;78.86
64189;BME280;50493;50.970;10.082;2024-02-28T05:11:26;99650.00;;;4.68;78.07
64189;BME280;50493;50.970;10.082;2024-02-28T05:13:53;99653.25;;;4.38;79.54
64189;BME280;50493;50.970;10.082;2024-02-28T05:16:18;99651.72;;;4.66;78.50
64189;BME280;50493;50.970;10.082;2024-02-28T05:18:44;99655.16;;;4.68;77.65
64189;BME280;50493;50.970;10.082;2024-02-28T05:21:10;99659.47;;;4.66;77.67
64189;BME280;50493;50.970;10.082;2024-02-28T05:23:35;99656.00;;;4.59;77.81
64189;BME280;50493;50.970;10.082;2024-02-28T05:26:01;99667.09;;;4.45;78.66
64189;BME280;50493;50.970;10.082;2024-02-28T05:28:29;99673.84;;;4.24;79.39
64189;BME280;50493;50.970;10.082;2024-02-28T05:30:55;99681.41;;;4.04;80.35
64189;BME280;50493;50.970;10.082;2024-02-28T05:33:21;99683.28;;;4.20;79.54
64189;BME280;50493;50.970;10.082;2024-02-28T05:35:46;99671.47;;;4.53;77.99
64189;BME280;50493;50.970;10.082;2024-02-28T05:38:11;99675.88;;;4.68;76.92
64189;BME280;50493;50.970;10.082;2024-02-28T05:40:37;99675.00;;;4.63;76.99
64189;BME280;50493;50.970;10.082;2024-02-28T05:43:02;99679.31;;;4.64;77.01
64189;BME280;50493;50.970;10.082;2024-02-28T05:45:29;99680.97;;;4.56;77.20
64189;BME280;50493;50.970;10.082;2024-02-28T05:47:56;99677.63;;;4.69;76.35
64189;BME280;50493;50.970;10.082;2024-02-28T05:50:21;99686.38;;;4.87;74.92
64189;BME280;50493;50.970;10.082;2024-02-28T05:52:46;99689.81;;;4.83;75.50
64189;BME280;50493;50.970;10.082;2024-02-28T05:55:12;99692.41;;;4.83;74.76
64189;BME280;50493;50.970;10.082;2024-02-28T05:57:37;99700.09;;;4.70;75.80
64189;BME280;50493;50.970;10.082;2024-02-28T06:00:04;99706.91;;;4.59;75.84
64189;BME280;50493;50.970;10.082;2024-02-28T06:02:34;99705.94;;;4.45;76.60
64189;BME280;50493;50.970;10.082;2024-02-28T06:05:01;99703.34;;;4.45;74.22
64189;BME280;50493;50.970;10.082;2024-02-28T06:07:26;99711.88;;;4.34;71.05
64189;BME280;50493;50.970;10.082;2024-02-28T06:09:52;99701.44;;;4.25;71.97
64189;BME280;50493;50.970;10.082;2024-02-28T06:12:17;99705.63;;;4.09;73.81
64189;BME280;50493;50.970;10.082;2024-02-28T06:14:42;99711.44;;;3.91;75.58
64189;BME280;50493;50.970;10.082;2024-02-28T06:17:08;99711.50;;;3.94;76.03
64189;BME280;50493;50.970;10.082;2024-02-28T06:19:33;99714.97;;;3.96;76.22
64189;BME280;50493;50.970;10.082;2024-02-28T06:22:00;99716.59;;;3.88;76.67
64189;BME280;50493;50.970;10.082;2024-02-28T06:24:25;99719.91;;;3.78;77.14
64189;BME280;50493;50.970;10.082;2024-02-28T06:26:51;99730.91;;;3.58;78.52
64189;BME280;50493;50.970;10.082;2024-02-28T06:29:16;99727.41;;;3.54;78.63
64189;BME280;50493;50.970;10.082;2024-02-28T06:31:42;99730.91;;;3.56;78.60
64189;BME280;50493;50.970;10.082;2024-02-28T06:34:07;99728.38;;;3.64;78.32
64189;BME280;50493;50.970;10.082;2024-02-28T06:36:32;99731.06;;;3.72;77.82
64189;BME280;50493;50.970;10.082;2024-02-28T06:38:59;99730.38;;;3.87;77.01
64189;BME280;50493;50.970;10.082;2024-02-28T06:41:24;99730.38;;;3.87;77.05
64189;BME280;50493;50.970;10.082;2024-02-28T06:43:50;99735.69;;;4.01;76.19
64189;BME280;50493;50.970;10.082;2024-02-28T06:46:15;99742.44;;;3.85;76.82
64189;BME280;50493;50.970;10.082;2024-02-28T06:48:40;99741.38;;;3.67;77.69
64189;BME280;50493;50.970;10.082;2024-02-28T06:51:06;99741.50;;;3.78;77.06
64189;BME280;50493;50.970;10.082;2024-02-28T06:53:31;99743.19;;;3.78;77.19
64189;BME280;50493;50.970;10.082;2024-02-28T06:55:58;99751.19;;;3.99;76.18
64189;BME280;50493;50.970;10.082;2024-02-28T06:58:23;99752.13;;;4.07;75.79
64189;BME280;50493;50.970;10.082;2024-02-28T07:00:50;99757.31;;;4.06;75.47
64189;BME280;50493;50.970;10.082;2024-02-28T07:03:16;99748.59;;;3.98;76.00
64189;BME280;50493;50.970;10.082;2024-02-28T07:05:42;99753.34;;;4.37;74.04
64189;BME280;50493;50.970;10.082;2024-02-28T07:08:07;99756.56;;;4.18;74.73
64189;BME280;50493;50.970;10.082;2024-02-28T07:10:32;99770.81;;;3.82;76.36
64189;BME280;50493;50.970;10.082;2024-02-28T07:12:59;99769.19;;;3.88;76.54
64189;BME280;50493;50.970;10.082;2024-02-28T07:15:24;99763.69;;;4.37;74.12
64189;BME280;50493;50.970;10.082;2024-02-28T07:17:50;99764.66;;;4.50;73.35
64189;BME280;50493;50.970;10.082;2024-02-28T07:20:15;99769.06;;;4.62;72.60
64189;BME280;50493;50.970;10.082;2024-02-28T07:22:42;99777.69;;;4.61;72.61
64189;BME280;50493;50.970;10.082;2024-02-28T07:25:08;99779.47;;;4.68;72.51
64189;BME280;50493;50.970;10.082;2024-02-28T07:27:33;99779.44;;;4.65;72.39
64189;BME280;50493;50.970;10.082;2024-02-28T07:30:00;99780.47;;;4.81;71.85
64189;BME280;50493;50.970;10.082;2024-02-28T07:32:26;99779.84;;;5.15;69.40
64189;BME280;50493;50.970;10.082;2024-02-28T07:34:52;99787.50;;;4.99;70.30
64189;BME280;50493;50.970;10.082;2024-02-28T07:37:18;99791.97;;;5.19;67.50
64189;BME280;50493;50.970;10.082;2024-02-28T07:39:43;99801.19;;;4.83;70.44
64189;BME280;50493;50.970;10.082;2024-02-28T07:42:08;99789.97;;;4.84;70.34
64189;BME280;50493;50.970;10.082;2024-02-28T07:44:34;99785.50;;;4.66;71.40
64189;BME280;50493;50.970;10.082;2024-02-28T07:47:00;99793.41;;;4.83;70.98
64189;BME280;50493;50.970;10.082;2024-02-28T07:49:26;99797.78;;;4.87;70.74
64189;BME280;50493;50.970;10.082;2024-02-28T07:51:51;99797.84;;;4.96;69.77
64189;BME280;50493;50.970;10.082;2024-02-28T07:54:17;99806.38;;;4.84;70.54
64189;BME280;50493;50.970;10.082;2024-02-28T07:56:43;99813.13;;;3.87;75.25
64189;BME280;50493;50.970;10.082;2024-02-28T07:59:09;99809.53;;;3.72;75.99
64189;BME280;50493;50.970;10.082;2024-02-28T08:01:34;99809.69;;;3.85;75.05
64189;BME280;50493;50.970;10.082;2024-02-28T08:04:01;99814.50;;;3.60;76.63
64189;BME280;50493;50.970;10.082;2024-02-28T08:06:27;99818.72;;;3.53;77.17
64189;BME280;50493;50.970;10.082;2024-02-28T08:08:52;99819.94;;;3.79;76.31
64189;BME280;50493;50.970;10.082;2024-02-28T08:11:18;99821.03;;;3.99;74.96
64189;BME280;50493;50.970;10.082;2024-02-28T08:13:44;99817.16;;;4.35;73.55
64189;BME280;50493;50.970;10.082;2024-02-28T08:16:09;99823.75;;;4.98;59.87
64189;BME280;50493;50.970;10.082;2024-02-28T08:18:34;99822.91;;;4.97;67.17
64189;BME280;50493;50.970;10.082;2024-02-28T08:21:01;99830.66;;;4.10;73.49
64189;BME280;50493;50.970;10.082;2024-02-28T08:23:28;99830.25;;;3.76;75.94
64189;BME280;50493;50.970;10.082;2024-02-28T08:25:54;99834.19;;;4.15;74.34
64189;BME280;50493;50.970;10.082;2024-02-28T08:28:19;99838.16;;;4.63;71.64
64189;BME280;50493;50.970;10.082;2024-02-28T08:30:45;99830.50;;;3.94;74.97
64189;BME280;50493;50.970;10.082;2024-02-28T08:33:10;99836.41;;;3.87;75.60
64189;BME280;50493;50.970;10.082;2024-02-28T08:35:35;99836.94;;;3.61;76.89
64189;BME280;50493;50.970;10.082;2024-02-28T08:38:02;99838.56;;;3.56;77.31
64189;BME280;50493;50.970;10.082;2024-02-28T08:40:28;99831.84;;;4.38;59.96
64189;BME280;50493;50.970;10.082;2024-02-28T08:42:54;99843.38;;;4.69;59.11
64189;BME280;50493;50.970;10.082;2024-02-28T08:45:19;99839.25;;;4.08;74.00
64189;BME280;50493;50.970;10.082;2024-02-28T08:47:45;99850.94;;;4.49;72.29
64189;BME280;50493;50.970;10.082;2024-02-28T08:50:10;99839.63;;;4.42;70.02
64189;BME280;50493;50.970;10.082;2024-02-28T08:52:35;99849.81;;;4.24;73.93
64189;BME280;50493;50.970;10.082;2024-02-28T08:55:03;99853.25;;;4.23;74.26
64189;BME280;50493;50.970;10.082;2024-02-28T08:57:28;99855.88;;;5.15;62.41
64189;BME280;50493;50.970;10.082;2024-02-28T08:59:55;99856.19;;;5.57;56.18
64189;BME280;50493;50.970;10.082;2024-02-28T09:02:20;99867.81;;;4.99;69.36
64189;BME280;50493;50.970;10.082;2024-02-28T09:04:45;99870.75;;;4.46;72.80
64189;BME280;50493;50.970;10.082;2024-02-28T09:07:11;99858.88;;;3.93;75.96
64189;BME280;50493;50.970;10.082;2024-02-28T09:09:41;99869.28;;;4.72;69.30
64189;BME280;50493;50.970;10.082;2024-02-28T09:12:08;99862.41;;;4.73;72.44
64189;BME280;50493;50.970;10.082;2024-02-28T09:14:33;99865.13;;;4.90;71.60
64189;BME280;50493;50.970;10.082;2024-02-28T09:16:58;99862.44;;;4.78;66.86
64189;BME280;50493;50.970;10.082;2024-02-28T09:19:28;99869.00;;;4.41;73.76
64189;BME280;50493;50.970;10.082;2024-02-28T09:21:53;99856.59;;;4.97;71.48
64189;BME280;50493;50.970;10.082;2024-02-28T09:24:19;99854.69;;;4.79;71.86
64189;BME280;50493;50.970;10.082;2024-02-28T09:26:44;99861.69;;;4.91;71.68
64189;BME280;50493;50.970;10.082;2024-02-28T09:29:10;99855.69;;;4.92;67.29
64189;BME280;50493;50.970;10.082;2024-02-28T09:31:36;99857.59;;;4.25;74.89
64189;BME280;50493;50.970;10.082;2024-02-28T09:34:01;99862.19;;;4.53;74.22
64189;BME280;50493;50.970;10.082;2024-02-28T09:36:32;99857.56;;;5.13;71.51
64189;BME280;50493;50.970;10.082;2024-02-28T09:38:57;99867.81;;;4.96;70.83
64189;BME280;50493;50.970;10.082;2024-02-28T09:41:23;99867.47;;;4.59;73.34
64189;BME280;50493;50.970;10.082;2024-02-28T09:43:51;99869.38;;;4.82;73.03
64189;BME280;50493;50.970;10.082;2024-02-28T09:46:18;99869.50;;;4.94;70.03
64189;BME280;50493;50.970;10.082;2024-02-28T09:48:46;99869.88;;;4.47;74.15
64189;BME280;50493;50.970;10.082;2024-02-28T09:51:14;99864.56;;;4.31;75.39
64189;BME280;50493;50.970;10.082;2024-02-28T09:53:41;99865.41;;;4.30;75.40
64189;BME280;50493;50.970;10.082;2024-02-28T09:56:07;99856.44;;;4.82;73.72
64189;BME280;50493;50.970;10.082;2024-02-28T09:58:33;99860.75;;;4.78;73.33
64189;BME280;50493;50.970;10.082;2024-02-28T10:01:02;99860.00;;;4.93;73.15
64189;BME280;50493;50.970;10.082;2024-02-28T10:03:31;99859.53;;;5.42;66.25
64189;BME280;50493;50.970;10.082;2024-02-28T10:05:57;99851.41;;;6.53;58.74
64189;BME280;50493;50.970;10.082;2024-02-28T10:08:23;99854.78;;;6.15;66.61
64189;BME280;50493;50.970;10.082;2024-02-28T10:10:49;99859.25;;;6.73;62.04
64189;BME280;50493;50.970;10.082;2024-02-28T10:13:15;99856.59;;;6.59;64.41
64189;BME280;50493;50.970;10.082;2024-02-28T10:15:41;99858.25;;;6.23;66.28
64189;BME280;50493;50.970;10.082;2024-02-28T10:18:06;99853.16;;;6.63;61.03
64189;BME280;50493;50.970;10.082;2024-02-28T10:20:33;99853.19;;;6.66;63.39
64189;BME280;50493;50.970;10.082;2024-02-28T10:22:59;99851.31;;;6.22;66.10
64189;BME280;50493;50.970;10.082;2024-02-28T10:25:24;99851.44;;;6.65;63.98
64189;BME280;50493;50.970;10.082;2024-02-28T10:27:51;99851.31;;;6.23;66.54
64189;BME280;50493;50.970;10.082;2024-02-28T10:30:18;99839.31;;;7.63;56.92
64189;BME280;50493;50.970;10.082;2024-02-28T10:32:48;99842.69;;;7.99;52.14
64189;BME280;50493;50.970;10.082;2024-02-28T10:35:16;99847.97;;;7.65;54.08
64189;BME280;50493;50.970;10.082;2024-02-28T10:37:44;99849.47;;;8.34;48.89
64189;BME280;50493;50.970;10.082;2024-02-28T10:40:11;99852.84;;;8.49;49.49
64189;BME280;50493;50.970;10.082;2024-02-28T10:42:39;99855.88;;;9.19;48.14
64189;BME280;50493;50.970;10.082;2024-02-28T10:45:08;99851.59;;;9.07;45.80
64189;BME280;50493;50.970;10.082;2024-02-28T10:47:37;99863.03;;;8.89;54.11
64189;BME280;50493;50.970;10.082;2024-02-28T10:50:03;99862.75;;;7.52;62.62
64189;BME280;50493;50.970;10.082;2024-02-28T10:52:32;99863.44;;;8.18;60.28
64189;BME280;50493;50.970;10.082;2024-02-28T10:55:01;99859.09;;;8.12;48.26
64189;BME280;50493;50.970;10.082;2024-02-28T10:57:29;99861.31;;;8.89;53.10
64189;BME280;50493;50.970;10.082;2024-02-28T10:59:56;99859.44;;;9.05;57.33
64189;BME280;50493;50.970;10.082;2024-02-28T11:02:22;99847.25;;;9.99;44.67
64189;BME280;50493;50.970;10.082;2024-02-28T11:04:51;99850.00;;;9.87;42.57
64189;BME280;50493;50.970;10.082;2024-02-28T11:07:19;99852.63;;;9.84;43.05
64189;BME280;50493;50.970;10.082;2024-02-28T11:09:44;99861.25;;;8.99;58.42
64189;BME280;50493;50.970;10.082;2024-02-28T11:12:25;99857.19;;;9.63;45.83
64189;BME280;50493;50.970;10.082;2024-02-28T11:14:56;99857.56;;;9.26;49.14
64189;BME280;50493;50.970;10.082;2024-02-28T11:17:26;99855.09;;;9.96;47.35
64189;BME280;50493;50.970;10.082;2024-02-28T11:19:51;99847.03;;;9.34;52.26
64189;BME280;50493;50.970;10.082;2024-02-28T11:22:18;99848.94;;;9.15;47.39
64189;BME280;50493;50.970;10.082;2024-02-28T11:24:44;99854.38;;;8.84;47.19
64189;BME280;50493;50.970;10.082;2024-02-28T11:27:11;99848.41;;;9.70;46.80
64189;BME280;50493;50.970;10.082;2024-02-28T11:29:40;99849.84;;;9.99;45.69
64189;BME280;50493;50.970;10.082;2024-02-28T11:32:06;99862.25;;;9.80;49.59
64189;BME280;50493;50.970;10.082;2024-02-28T11:34:33;99854.47;;;8.68;50.29
64189;BME280;50493;50.970;10.082;2024-02-28T11:36:59;99856.28;;;8.60;51.04
64189;BME280;50493;50.970;10.082;2024-02-28T11:39:24;99871.41;;;6.99;51.83
64189;BME280;50493;50.970;10.082;2024-02-28T11:41:52;99855.25;;;8.81;49.58
64189;BME280;50493;50.970;10.082;2024-02-28T11:44:18;99850.81;;;9.00;47.51
64189;BME280;50493;50.970;10.082;2024-02-28T11:46:45;99854.22;;;9.08;51.38
64189;BME280;50493;50.970;10.082;2024-02-28T11:49:11;99854.38;;;8.87;50.27
64189;BME280;50493;50.970;10.082;2024-02-28T11:51:37;99848.91;;;9.18;46.92
64189;BME280;50493;50.970;10.082;2024-02-28T11:54:02;99838.50;;;10.02;45.59
64189;BME280;50493;50.970;10.082;2024-02-28T11:56:27;99839.41;;;9.99;45.76
64189;BME280;50493;50.970;10.082;2024-02-28T11:58:53;99838.91;;;9.64;45.29
64189;BME280;50493;50.970;10.082;2024-02-28T12:01:19;99838.78;;;8.77;48.87
64189;BME280;50493;50.970;10.082;2024-02-28T12:03:46;99836.09;;;8.85;47.99
64189;BME280;50493;50.970;10.082;2024-02-28T12:06:11;99826.34;;;9.13;46.87
64189;BME280;50493;50.970;10.082;2024-02-28T12:08:37;99829.31;;;8.64;48.17
64189;BME280;50493;50.970;10.082;2024-02-28T12:11:06;99822.22;;;9.79;45.02
64189;BME280;50493;50.970;10.082;2024-02-28T12:13:32;99820.78;;;9.51;45.93
64189;BME280;50493;50.970;10.082;2024-02-28T12:15:57;99830.31;;;8.41;48.00
64189;BME280;50493;50.970;10.082;2024-02-28T12:18:23;99833.88;;;8.25;48.55
64189;BME280;50493;50.970;10.082;2024-02-28T12:20:53;99817.41;;;9.39;46.59
64189;BME280;50493;50.970;10.082;2024-02-28T12:23:19;99815.13;;;9.91;45.49
64189;BME280;50493;50.970;10.082;2024-02-28T12:25:45;99811.06;;;10.38;44.16
64189;BME280;50493;50.970;10.082;2024-02-28T12:28:10;99803.00;;;9.84;43.25
64189;BME280;50493;50.970;10.082;2024-02-28T12:30:39;99802.50;;;9.52;45.75
64189;BME280;50493;50.970;10.082;2024-02-28T12:33:05;99808.91;;;9.22;46.39
64189;BME280;50493;50.970;10.082;2024-02-28T12:35:30;99808.31;;;9.79;46.82
64189;BME280;50493;50.970;10.082;2024-02-28T12:37:57;99799.56;;;9.83;53.74
64189;BME280;50493;50.970;10.082;2024-02-28T12:40:22;99795.56;;;10.23;47.38
64189;BME280;50493;50.970;10.082;2024-02-28T12:42:48;99789.84;;;10.58;41.38
64189;BME280;50493;50.970;10.082;2024-02-28T12:45:13;99786.50;;;9.83;42.99
64189;BME280;50493;50.970;10.082;2024-02-28T12:47:39;99793.56;;;8.82;44.28
64189;BME280;50493;50.970;10.082;2024-02-28T12:50:05;99794.25;;;9.07;45.19
64189;BME280;50493;50.970;10.082;2024-02-28T12:52:32;99786.66;;;8.77;44.36